createdAt,value
2019-05-26T00:01:15.223Z,98812.37
2019-05-26T00:03:46.501Z,98817.34
2019-05-26T00:06:20.599Z,98818.84
2019-05-26T00:08:52.611Z,98813.90
2019-05-26T00:11:27.858Z,98814.70
2019-05-26T00:13:59.486Z,98814.22
2019-05-26T00:16:33.030Z,98816.11
2019-05-26T00:19:08.252Z,98822.39
2019-05-26T00:21:40.605Z,98812.08
2019-05-26T00:24:14.511Z,98810.22
2019-05-26T00:26:46.575Z,98809.71
2019-05-26T00:29:19.436Z,98815.98
2019-05-26T00:31:53.940Z,98815.61
2019-05-26T00:34:27.481Z,98817.12
2019-05-26T00:37:03.284Z,98820.44
2019-05-26T00:39:35.772Z,98814.51
2019-05-26T00:42:07.632Z,98817.53
2019-05-26T00:44:41.925Z,98821.13
2019-05-26T00:47:14.977Z,98818.63
2019-05-26T00:49:47.634Z,98821.61
2019-05-26T00:52:19.703Z,98820.51
2019-05-26T00:54:52.820Z,98818.00
2019-05-26T00:57:25.826Z,98820.28
2019-05-26T00:59:59.578Z,98821.19
2019-05-26T01:02:42.071Z,98817.52
2019-05-26T01:05:17.558Z,98816.26
2019-05-26T01:08:05.189Z,98813.69
2019-05-26T01:10:22.735Z,98818.52
2019-05-26T01:12:55.932Z,98821.28
2019-05-26T01:15:30.075Z,98826.00
2019-05-26T01:18:03.933Z,98821.88
2019-05-26T01:20:36.957Z,98818.28
2019-05-26T01:23:10.743Z,98813.06
2019-05-26T01:25:44.411Z,98809.53
2019-05-26T01:28:17.047Z,98815.84
2019-05-26T01:30:52.312Z,98814.16
2019-05-26T01:33:27.541Z,98815.20
2019-05-26T01:36:00.664Z,98818.78
2019-05-26T01:38:32.784Z,98822.58
2019-05-26T01:41:05.031Z,98820.26
2019-05-26T01:43:38.990Z,98835.20
2019-05-26T01:46:11.212Z,98828.42
2019-05-26T01:48:44.315Z,98832.81
2019-05-26T01:51:17.956Z,98826.38
2019-05-26T01:53:50.275Z,98832.53
2019-05-26T01:56:24.621Z,98834.80
2019-05-26T01:58:56.324Z,98832.38
2019-05-26T02:01:28.947Z,98835.80
2019-05-26T02:04:03.592Z,98832.06
2019-05-26T02:06:35.700Z,98831.55
2019-05-26T02:09:11.605Z,98832.38
2019-05-26T02:11:46.000Z,98832.53
2019-05-26T02:14:19.955Z,98827.16
2019-05-26T02:16:54.141Z,98827.72
2019-05-26T02:19:27.217Z,98834.45
2019-05-26T02:22:01.122Z,98831.97
2019-05-26T02:24:35.859Z,98836.67
2019-05-26T02:27:13.676Z,98832.63
2019-05-26T02:29:46.336Z,98837.41
2019-05-26T02:32:20.970Z,98833.77
2019-05-26T02:34:54.164Z,98829.78
2019-05-26T02:37:27.836Z,98837.56
2019-05-26T02:40:01.291Z,98836.55
2019-05-26T02:42:42.998Z,98840.34
2019-05-26T02:45:19.086Z,98835.63
2019-05-26T02:47:53.333Z,98839.66
2019-05-26T02:50:27.026Z,98839.94
2019-05-26T02:52:59.237Z,98837.94
2019-05-26T02:55:32.396Z,98838.30
2019-05-26T02:58:06.358Z,98837.73
2019-05-26T03:00:45.051Z,98831.11
2019-05-26T03:03:17.800Z,98832.25
2019-05-26T03:05:51.196Z,98834.17
2019-05-26T03:08:24.297Z,98830.22
2019-05-26T03:10:59.539Z,98831.60
2019-05-26T03:13:35.128Z,98831.14
2019-05-26T03:16:07.662Z,98823.88
2019-05-26T03:18:43.152Z,98829.53
2019-05-26T03:21:15.175Z,98830.44
2019-05-26T03:23:50.624Z,98831.41
2019-05-26T03:26:25.131Z,98830.31
2019-05-26T03:28:56.370Z,98825.84
2019-05-26T03:31:32.165Z,98834.23
2019-05-26T03:34:05.179Z,98829.25
2019-05-26T03:36:38.673Z,98831.45
2019-05-26T03:39:09.925Z,98833.49
2019-05-26T03:41:41.560Z,98830.62
2019-05-26T03:44:15.124Z,98833.64
2019-05-26T03:46:49.571Z,98836.74
2019-05-26T03:49:23.623Z,98842.70
2019-05-26T03:51:57.237Z,98842.66
2019-05-26T03:54:28.721Z,98845.52
2019-05-26T03:57:04.143Z,98853.81
2019-05-26T03:59:37.761Z,98855.22
2019-05-26T04:02:09.148Z,98855.80
2019-05-26T04:04:42.550Z,98859.74
2019-05-26T04:07:14.881Z,98863.28
2019-05-26T04:10:03.835Z,98863.61
2019-05-26T04:12:22.900Z,98864.18
2019-05-26T04:14:56.671Z,98868.56
2019-05-26T04:17:30.993Z,98874.58
2019-05-26T04:20:02.208Z,98869.69
2019-05-26T04:22:44.190Z,98869.12
2019-05-26T04:25:17.650Z,98871.31
2019-05-26T04:27:49.715Z,98875.03
2019-05-26T04:30:22.770Z,98871.75
2019-05-26T04:32:56.912Z,98870.27
2019-05-26T04:35:36.736Z,98872.73
2019-05-26T04:38:08.627Z,98873.55
2019-05-26T04:40:41.964Z,98875.27
2019-05-26T04:43:16.321Z,98868.75
2019-05-26T04:45:49.896Z,98880.03
2019-05-26T04:48:22.906Z,98872.87
2019-05-26T04:50:55.919Z,98880.98
2019-05-26T04:53:28.906Z,98889.46
2019-05-26T04:56:02.527Z,98878.77
2019-05-26T04:58:36.283Z,98877.97
2019-05-26T05:01:09.540Z,98876.52
2019-05-26T05:03:42.783Z,98882.44
2019-05-26T05:06:18.266Z,98885.70
2019-05-26T05:08:49.843Z,98885.70
2019-05-26T05:11:23.945Z,98832.56
2019-05-26T05:13:55.935Z,98885.11
2019-05-26T05:16:29.532Z,98887.56
2019-05-26T05:19:04.427Z,98889.24
2019-05-26T05:21:39.826Z,98743.08
2019-05-26T05:24:13.003Z,98884.01
2019-05-26T05:26:46.958Z,98882.68
2019-05-26T05:29:24.289Z,98887.71
2019-05-26T05:31:59.706Z,98889.39
2019-05-26T05:34:37.276Z,98887.44
2019-05-26T05:37:11.302Z,98888.06
2019-05-26T05:39:45.558Z,98879.95
2019-05-26T05:42:17.125Z,98889.39
2019-05-26T05:44:50.117Z,98889.75
2019-05-26T05:47:23.338Z,98155.84
2019-05-26T05:49:57.490Z,98890.22
2019-05-26T05:52:29.063Z,98892.33
2019-05-26T05:55:11.708Z,98885.52
2019-05-26T05:57:47.119Z,98889.16
2019-05-26T06:00:20.031Z,98894.45
2019-05-26T06:02:54.263Z,98907.39
2019-05-26T06:05:26.587Z,98900.48
2019-05-26T06:07:59.155Z,98903.70
2019-05-26T06:10:32.273Z,98905.51
2019-05-26T06:13:06.055Z,98908.09
2019-05-26T06:15:40.575Z,98908.18
2019-05-26T06:18:14.908Z,98913.55
2019-05-26T06:20:49.009Z,98920.69
2019-05-26T06:23:20.329Z,98917.30
2019-05-26T06:25:54.016Z,98913.54
2019-05-26T06:28:26.901Z,98913.66
2019-05-26T06:30:59.342Z,98917.71
2019-05-26T06:33:32.332Z,98913.66
2019-05-26T06:36:16.407Z,98910.37
2019-05-26T06:38:47.744Z,98920.48
2019-05-26T06:41:32.758Z,98920.59
2019-05-26T06:43:54.678Z,98920.14
2019-05-26T06:46:26.708Z,98925.34
2019-05-26T06:49:00.377Z,98928.84
2019-05-26T06:51:33.956Z,98925.05
2019-05-26T06:54:17.819Z,98927.73
2019-05-26T06:56:50.683Z,98926.39
2019-05-26T06:59:25.054Z,98924.94
2019-05-26T07:01:56.606Z,98918.92
2019-05-26T07:04:29.475Z,98932.22
2019-05-26T07:07:04.438Z,98932.94
2019-05-26T07:09:38.288Z,98929.64
2019-05-26T07:12:12.547Z,98932.28
2019-05-26T07:14:47.557Z,98933.34
2019-05-26T07:17:21.552Z,98937.95
2019-05-26T07:19:55.410Z,98931.63
2019-05-26T07:22:31.255Z,98937.19
2019-05-26T07:25:02.468Z,98938.00
2019-05-26T07:27:47.567Z,98937.56
2019-05-26T07:30:25.571Z,98934.27
2019-05-26T07:33:02.610Z,98929.77
2019-05-26T07:35:36.686Z,98926.49
2019-05-26T07:38:09.921Z,98931.76
2019-05-26T07:40:41.504Z,98930.43
2019-05-26T07:43:16.423Z,98928.45
2019-05-26T07:45:48.128Z,98922.67
2019-05-26T07:48:20.545Z,98921.81
2019-05-26T07:50:52.092Z,98895.31
2019-05-26T07:53:24.154Z,98914.08
2019-05-26T07:55:58.332Z,98913.70
2019-05-26T07:58:31.581Z,98921.94
2019-05-26T08:01:05.749Z,98924.09
2019-05-26T08:03:41.528Z,98929.09
2019-05-26T08:06:14.066Z,98923.88
2019-05-26T08:08:48.526Z,98924.08
2019-05-26T08:11:20.420Z,98921.63
2019-05-26T08:13:56.527Z,98919.44
2019-05-26T08:16:29.907Z,98922.81
2019-05-26T08:19:03.552Z,98917.42
2019-05-26T08:21:36.688Z,98923.59
2019-05-26T08:24:10.977Z,98921.36
2019-05-26T08:26:43.725Z,98926.42
2019-05-26T08:29:18.103Z,98926.14
2019-05-26T08:31:50.825Z,98929.53
2019-05-26T08:34:23.975Z,98939.66
2019-05-26T08:36:57.537Z,98943.74
2019-05-26T08:39:29.228Z,98944.20
2019-05-26T08:42:02.799Z,98938.23
2019-05-26T08:44:34.995Z,98933.25
2019-05-26T08:47:08.049Z,98929.03
2019-05-26T08:49:39.562Z,98901.95
2019-05-26T08:52:14.119Z,98930.16
2019-05-26T08:54:48.775Z,98896.73
2019-05-26T08:57:23.698Z,98933.11
2019-05-26T08:59:57.124Z,98930.02
2019-05-26T09:02:42.733Z,98934.16
2019-05-26T09:05:16.847Z,98928.23
2019-05-26T09:07:49.252Z,98915.70
2019-05-26T09:10:22.579Z,98917.34
2019-05-26T09:13:01.234Z,98924.31
2019-05-26T09:15:29.291Z,98921.84
2019-05-26T09:18:04.169Z,98927.25
2019-05-26T09:20:39.852Z,98925.59
2019-05-26T09:23:14.200Z,98909.08
2019-05-26T09:25:46.973Z,98923.35
2019-05-26T09:28:18.761Z,98930.58
2019-05-26T09:30:50.168Z,98926.98
2019-05-26T09:33:23.440Z,98923.77
2019-05-26T09:35:57.187Z,98925.55
2019-05-26T09:38:31.476Z,98921.47
2019-05-26T09:41:05.203Z,98921.94
2019-05-26T09:43:40.191Z,98923.41
2019-05-26T09:46:15.974Z,98923.53
2019-05-26T09:48:51.339Z,98916.67
2019-05-26T09:51:25.635Z,98922.07
2019-05-26T09:54:02.033Z,98916.70
2019-05-26T09:56:36.686Z,98916.52
2019-05-26T09:59:10.191Z,98916.41
2019-05-26T10:01:45.761Z,98913.13
2019-05-26T10:04:18.950Z,98909.23
2019-05-26T10:06:50.456Z,98908.76
2019-05-26T10:09:23.449Z,98908.64
2019-05-26T10:11:57.607Z,98908.92
2019-05-26T10:14:29.442Z,98903.89
2019-05-26T10:17:03.446Z,98897.86
2019-05-26T10:19:37.707Z,98900.30
2019-05-26T10:22:14.439Z,98901.66
2019-05-26T10:24:46.579Z,98906.91
2019-05-26T10:27:20.363Z,98900.03
2019-05-26T10:29:53.639Z,98902.05
2019-05-26T10:32:27.690Z,98902.81
2019-05-26T10:34:59.480Z,98891.32
2019-05-26T10:37:44.028Z,98888.86
2019-05-26T10:40:18.815Z,98884.12
2019-05-26T10:42:51.822Z,98888.09
2019-05-26T10:45:24.674Z,98884.59
2019-05-26T10:47:56.397Z,98878.34
2019-05-26T10:50:31.541Z,98877.41
2019-05-26T10:53:05.674Z,98888.29
2019-05-26T10:55:41.460Z,98886.78
2019-05-26T10:58:13.558Z,98888.37
2019-05-26T11:00:49.167Z,98878.80
2019-05-26T11:03:20.587Z,98890.01
2019-05-26T11:05:54.825Z,98892.96
2019-05-26T11:08:28.289Z,98873.65
2019-05-26T11:11:00.802Z,98869.70
2019-05-26T11:13:32.724Z,98866.87
2019-05-26T11:16:06.641Z,98856.19
2019-05-26T11:18:40.086Z,98853.97
2019-05-26T11:21:13.700Z,98855.70
2019-05-26T11:24:00.967Z,98857.97
2019-05-26T11:26:32.751Z,98849.45
2019-05-26T11:29:07.169Z,98845.89
2019-05-26T11:31:38.689Z,98843.94
2019-05-26T11:34:14.711Z,98839.19
2019-05-26T11:36:47.774Z,98839.21
2019-05-26T11:39:19.823Z,98830.39
2019-05-26T11:42:10.572Z,98825.92
2019-05-26T11:44:30.985Z,98818.45
2019-05-26T11:47:04.531Z,98812.02
2019-05-26T11:49:36.059Z,98823.91
2019-05-26T11:52:08.774Z,98819.03
2019-05-26T11:54:41.988Z,98817.88
2019-05-26T11:57:15.674Z,98814.66
2019-05-26T11:59:47.506Z,98816.03
2019-05-26T12:02:20.539Z,98811.81
2019-05-26T12:04:55.538Z,98811.49
2019-05-26T12:07:26.812Z,98797.64
2019-05-26T12:09:58.636Z,98795.98
2019-05-26T12:12:32.136Z,98795.50
2019-05-26T12:15:16.836Z,98794.41
2019-05-26T12:17:49.114Z,98794.09
2019-05-26T12:20:20.804Z,98794.12
2019-05-26T12:22:53.895Z,98799.50
2019-05-26T12:25:27.084Z,98800.67
2019-05-26T12:28:02.727Z,98795.45
2019-05-26T12:30:36.131Z,98794.95
2019-05-26T12:33:10.571Z,98790.08
2019-05-26T12:35:46.339Z,98788.19
2019-05-26T12:38:18.146Z,98789.23
2019-05-26T12:40:54.327Z,98783.02
2019-05-26T12:43:28.478Z,98777.12
2019-05-26T12:46:00.465Z,98776.57
2019-05-26T12:48:33.213Z,98775.30
2019-05-26T12:51:06.204Z,98778.98
2019-05-26T12:53:39.225Z,98776.71
2019-05-26T12:56:15.798Z,98770.53
2019-05-26T12:58:49.127Z,98770.65
2019-05-26T13:01:20.482Z,98767.77
2019-05-26T13:03:56.362Z,98767.42
2019-05-26T13:06:31.007Z,98761.38
2019-05-26T13:09:02.363Z,98750.37
2019-05-26T13:11:37.246Z,98758.03
2019-05-26T13:14:09.642Z,98752.44
2019-05-26T13:16:42.308Z,98752.69
2019-05-26T13:19:16.289Z,98752.56
2019-05-26T13:21:48.578Z,98744.66
2019-05-26T13:24:20.546Z,98748.34
2019-05-26T13:27:01.553Z,98752.88
2019-05-26T13:29:50.600Z,98743.34
2019-05-26T13:32:24.979Z,98745.72
2019-05-26T13:35:18.518Z,98742.13
2019-05-26T13:37:53.956Z,98621.33
2019-05-26T13:40:29.524Z,98754.27
2019-05-26T13:43:02.192Z,98759.23
2019-05-26T13:45:37.500Z,98759.27
2019-05-26T13:48:11.829Z,98756.56
2019-05-26T13:50:49.307Z,98756.58
2019-05-26T13:53:21.043Z,98755.47
2019-05-26T13:55:54.524Z,98756.97
2019-05-26T13:58:29.582Z,98756.59
2019-05-26T14:01:15.554Z,98754.82
2019-05-26T14:03:47.590Z,98762.38
2019-05-26T14:06:20.726Z,98758.89
2019-05-26T14:09:10.627Z,98759.34
2019-05-26T14:11:44.335Z,98762.69
2019-05-26T14:14:18.375Z,98763.38
2019-05-26T14:16:53.129Z,98761.97
2019-05-26T14:19:28.647Z,98770.44
2019-05-26T14:22:04.349Z,98784.19
2019-05-26T14:24:50.942Z,98777.81
2019-05-26T14:27:15.135Z,98786.53
2019-05-26T14:29:47.706Z,98795.24
2019-05-26T14:32:21.170Z,98792.38
2019-05-26T14:34:53.716Z,98790.28
2019-05-26T14:37:29.485Z,98790.27
2019-05-26T14:40:15.748Z,98791.47
2019-05-26T14:42:49.837Z,98784.92
2019-05-26T14:45:21.278Z,98785.32
2019-05-26T14:47:53.581Z,98780.89
2019-05-26T14:50:26.677Z,98786.17
2019-05-26T14:53:00.063Z,98792.95
2019-05-26T14:55:34.275Z,98779.91
2019-05-26T14:58:15.871Z,98784.98
2019-05-26T15:00:45.778Z,98783.20
2019-05-26T15:03:19.702Z,98779.46
2019-05-26T15:06:05.840Z,98776.20
2019-05-26T15:08:42.020Z,98775.88
2019-05-26T15:11:17.626Z,98774.80
2019-05-26T15:13:50.570Z,98778.30
2019-05-26T15:16:25.708Z,98780.22
2019-05-26T15:18:59.726Z,98778.48
2019-05-26T15:21:34.557Z,98766.75
2019-05-26T15:24:08.816Z,98768.63
2019-05-26T15:26:41.897Z,98771.25
2019-05-26T15:29:15.837Z,98772.14
2019-05-26T15:31:48.962Z,98776.11
2019-05-26T15:34:20.997Z,98774.14
2019-05-26T15:36:53.878Z,98773.17
2019-05-26T15:39:32.048Z,98777.05
2019-05-26T15:42:08.200Z,98771.43
2019-05-26T15:44:39.801Z,98770.16
2019-05-26T15:47:14.608Z,98771.16
2019-05-26T15:49:47.073Z,98777.11
2019-05-26T15:52:22.615Z,98776.55
2019-05-26T15:54:56.874Z,98789.41
2019-05-26T15:57:29.167Z,98791.47
2019-05-26T16:00:14.648Z,98786.98
2019-05-26T16:02:46.908Z,98781.24
2019-05-26T16:05:22.844Z,98785.62
2019-05-26T16:07:57.009Z,98780.39
2019-05-26T16:10:30.329Z,98654.09
2019-05-26T16:13:04.963Z,98786.99
2019-05-26T16:15:38.200Z,98776.54
2019-05-26T16:18:13.688Z,98773.45
2019-05-26T16:20:46.675Z,98778.12
2019-05-26T16:23:19.101Z,98782.42
2019-05-26T16:25:51.057Z,98779.55
2019-05-26T16:28:24.365Z,98775.73
2019-05-26T16:30:58.912Z,98775.19
2019-05-26T16:33:30.146Z,98782.37
2019-05-26T16:36:04.409Z,98773.87
2019-05-26T16:38:36.293Z,98766.20
2019-05-26T16:41:07.503Z,98771.20
2019-05-26T16:43:41.119Z,98767.84
2019-05-26T16:46:15.230Z,98759.83
2019-05-26T16:48:48.267Z,98752.96
2019-05-26T16:51:20.275Z,98749.02
2019-05-26T16:53:55.941Z,98747.30
2019-05-26T16:56:27.556Z,98747.16
2019-05-26T16:59:01.151Z,98740.45
2019-05-26T17:01:38.092Z,98747.14
2019-05-26T17:04:14.201Z,98743.53
2019-05-26T17:06:48.368Z,98749.77
2019-05-26T17:09:22.351Z,98753.31
2019-05-26T17:11:55.831Z,98742.64
2019-05-26T17:14:27.757Z,98745.20
2019-05-26T17:17:14.175Z,98746.29
2019-05-26T17:19:37.028Z,98745.25
2019-05-26T17:22:09.025Z,98742.19
2019-05-26T17:24:43.575Z,98742.47
2019-05-26T17:27:16.696Z,98741.19
2019-05-26T17:29:50.328Z,98741.28
2019-05-26T17:32:21.543Z,98741.84
2019-05-26T17:35:16.641Z,98732.78
2019-05-26T17:38:09.834Z,98735.73
2019-05-26T17:40:43.451Z,98734.88
2019-05-26T17:43:24.828Z,98727.15
2019-05-26T17:46:11.220Z,98719.49
2019-05-26T17:49:17.377Z,98718.89
2019-05-26T17:52:09.319Z,98591.36
2019-05-26T17:54:42.559Z,98721.60
2019-05-26T17:57:14.645Z,98723.23
2019-05-26T17:59:47.488Z,98729.23
2019-05-26T18:02:20.742Z,98587.72
2019-05-26T18:04:54.918Z,98718.55
2019-05-26T18:07:28.869Z,98725.40
2019-05-26T18:10:02.010Z,98723.85
2019-05-26T18:12:41.534Z,98721.95
2019-05-26T18:15:18.360Z,98725.05
2019-05-26T18:17:52.023Z,98712.21
2019-05-26T18:20:26.591Z,98718.56
2019-05-26T18:23:01.041Z,98718.01
2019-05-26T18:25:33.690Z,98712.73
2019-05-26T18:28:06.761Z,98714.50
2019-05-26T18:30:41.393Z,98715.39
2019-05-26T18:33:12.987Z,98716.28
2019-05-26T18:35:47.447Z,98722.67
2019-05-26T18:38:18.691Z,98718.27
2019-05-26T18:40:51.679Z,98720.12
2019-05-26T18:43:24.646Z,98726.38
2019-05-26T18:45:59.541Z,98723.00
2019-05-26T18:48:31.533Z,98723.88
2019-05-26T18:51:05.006Z,98717.91
2019-05-26T18:53:37.983Z,98722.16
2019-05-26T18:56:10.897Z,98722.14
2019-05-26T18:58:45.616Z,98724.17
2019-05-26T19:01:21.331Z,98726.77
2019-05-26T19:03:52.929Z,98735.72
2019-05-26T19:06:27.626Z,98736.50
2019-05-26T19:09:00.836Z,98740.85
2019-05-26T19:11:34.146Z,98744.47
2019-05-26T19:14:06.984Z,98735.65
2019-05-26T19:16:39.042Z,98735.84
2019-05-26T19:19:12.008Z,98736.36
2019-05-26T19:21:44.247Z,98735.83
2019-05-26T19:24:17.090Z,98732.71
2019-05-26T19:26:50.062Z,98739.14
2019-05-26T19:29:22.788Z,98737.48
2019-05-26T19:31:56.163Z,98746.92
2019-05-26T19:34:40.083Z,98742.66
2019-05-26T19:37:15.564Z,98741.77
2019-05-26T19:39:58.490Z,98743.95
2019-05-26T19:42:30.940Z,98744.38
2019-05-26T19:45:14.914Z,98737.37
2019-05-26T19:47:59.774Z,98745.39
2019-05-26T19:50:32.416Z,98736.11
2019-05-26T19:53:06.472Z,98734.61
2019-05-26T19:55:41.279Z,98739.67
2019-05-26T19:58:17.210Z,98727.29
2019-05-26T20:00:52.742Z,98726.71
2019-05-26T20:03:24.108Z,98720.38
2019-05-26T20:06:00.149Z,98721.11
2019-05-26T20:08:45.599Z,98716.32
2019-05-26T20:11:18.408Z,98706.88
2019-05-26T20:13:52.011Z,98723.66
2019-05-26T20:16:30.397Z,98734.33
2019-05-26T20:19:02.055Z,98726.73
2019-05-26T20:21:37.881Z,98733.91
2019-05-26T20:24:12.290Z,98732.92
2019-05-26T20:26:45.263Z,98738.92
2019-05-26T20:29:18.282Z,98734.94
2019-05-26T20:31:55.498Z,98736.49
2019-05-26T20:34:31.533Z,98744.81
2019-05-26T20:37:05.307Z,98741.50
2019-05-26T20:39:38.378Z,98737.39
2019-05-26T20:42:12.357Z,98738.92
2019-05-26T20:44:45.402Z,98739.00
2019-05-26T20:47:20.277Z,98740.92
2019-05-26T20:49:54.482Z,98741.38
2019-05-26T20:52:27.506Z,98742.59
2019-05-26T20:55:01.597Z,98743.54
2019-05-26T20:57:44.034Z,98743.38
2019-05-26T21:00:18.291Z,98753.23
2019-05-26T21:02:51.395Z,98742.30
2019-05-26T21:05:37.837Z,98747.89
2019-05-26T21:08:10.554Z,98744.02
2019-05-26T21:10:44.228Z,98743.48
2019-05-26T21:13:33.531Z,98741.15
2019-05-26T21:16:28.006Z,98738.03
2019-05-26T21:19:36.521Z,98741.61
2019-05-26T21:22:09.528Z,98741.57
2019-05-26T21:24:41.717Z,98740.89
2019-05-26T21:27:41.495Z,98740.38
2019-05-26T21:30:19.859Z,98613.56
2019-05-26T21:33:07.707Z,98750.95
2019-05-26T21:35:52.097Z,98748.27
2019-05-26T21:38:25.092Z,98743.94
2019-05-26T21:40:59.543Z,98588.80
2019-05-26T21:43:33.546Z,98740.81
2019-05-26T21:46:06.616Z,98746.03
2019-05-26T21:48:39.646Z,98742.81
2019-05-26T21:51:12.794Z,98737.55
2019-05-26T21:53:46.964Z,98730.20
2019-05-26T21:56:18.864Z,98730.73
2019-05-26T21:58:53.477Z,98726.11
2019-05-26T22:01:26.461Z,98721.28
2019-05-26T22:03:59.922Z,98722.85
2019-05-26T22:06:34.684Z,98722.90
2019-05-26T22:09:09.778Z,98718.20
2019-05-26T22:11:43.824Z,98715.48
2019-05-26T22:14:16.716Z,98714.19
2019-05-26T22:16:49.696Z,98704.97
2019-05-26T22:19:21.293Z,98705.59
2019-05-26T22:21:53.860Z,98711.38
2019-05-26T22:24:25.222Z,98699.98
2019-05-26T22:27:00.583Z,98704.63
2019-05-26T22:29:33.054Z,98695.98
2019-05-26T22:32:05.983Z,98692.72
2019-05-26T22:34:39.116Z,98687.55
2019-05-26T22:37:14.658Z,98689.39
2019-05-26T22:39:48.730Z,98688.56
2019-05-26T22:42:22.094Z,98685.73
2019-05-26T22:44:56.451Z,98681.99
2019-05-26T22:47:28.723Z,98677.74
2019-05-26T22:50:02.549Z,98675.09
2019-05-26T22:52:45.324Z,98678.00
2019-05-26T22:55:20.155Z,98676.84
2019-05-26T22:57:51.990Z,98676.61
2019-05-26T23:00:26.799Z,98670.82
2019-05-26T23:02:58.113Z,98669.63
2019-05-26T23:05:31.509Z,98668.56
2019-05-26T23:08:04.094Z,98541.41
2019-05-26T23:10:39.649Z,98664.83
2019-05-26T23:13:12.859Z,98667.41
2019-05-26T23:15:46.735Z,98666.30
2019-05-26T23:18:19.158Z,98671.56
2019-05-26T23:20:50.510Z,98670.90
2019-05-26T23:23:21.974Z,98671.20
2019-05-26T23:25:56.041Z,98663.84
2019-05-26T23:28:31.226Z,98666.61
2019-05-26T23:31:05.570Z,98663.77
2019-05-26T23:33:38.351Z,98661.64
2019-05-26T23:36:11.889Z,98659.33
2019-05-26T23:38:43.263Z,98661.59
2019-05-26T23:41:16.263Z,98654.25
2019-05-26T23:43:49.260Z,98658.08
2019-05-26T23:46:21.385Z,98662.66
2019-05-26T23:48:56.832Z,98653.78
2019-05-26T23:51:29.108Z,98657.64
2019-05-26T23:54:02.264Z,98651.61
2019-05-26T23:56:36.331Z,98651.77
2019-05-26T23:59:10.264Z,98648.58
